Time;durP1;ratioP1;P1;durP2;ratioP2;P2;SDS_P1;SDS_P2;PMS_P1;PMS_P2;Temp;Humidity;BMP_temperature;BMP_pressure;BME280_temperature;BME280_humidity;BME280_pressure;Samples;Min_cycle;Max_cycle;Signal;HPM_P1;HPM_P2
2022/04/08 00:00:38;;;;;;;51.97;8.03;;;;;;;;;;5002863;28;20659;-69
2022/04/08 00:03:06;;;;;;;102.90;14.83;;;;;;;;;;4997547;28;20717;-69
2022/04/08 00:05:32;;;;;;;65.97;9.83;;;;;;;;;;5002705;28;20228;-68
2022/04/08 00:07:58;;;;;;;123.50;18.33;;;;;;;;;;4990590;28;20214;-69
2022/04/08 00:10:24;;;;;;;64.80;9.60;;;;;;;;;;5001109;28;20745;-69
2022/04/08 00:12:50;;;;;;;82.63;12.03;;;;;;;;;;5005791;28;20221;-69
2022/04/08 00:15:16;;;;;;;88.93;12.73;;;;;;;;;;4984574;28;20296;-69
2022/04/08 00:17:42;;;;;;;137.40;19.07;;;;;;;;;;4992377;28;20304;-69
2022/04/08 00:20:08;;;;;;;73.40;10.60;;;;;;;;;;4995872;28;20196;-69
2022/04/08 00:22:39;;;;;;;61.43;9.03;;;;;;;;;;4990415;28;20196;-69
2022/04/08 00:25:05;;;;;;;148.07;20.70;;;;;;;;;;4994158;28;20185;-69
2022/04/08 00:27:31;;;;;;;108.90;15.63;;;;;;;;;;4996699;28;20267;-69
2022/04/08 00:29:57;;;;;;;74.47;11.23;;;;;;;;;;5003784;28;20192;-69
2022/04/08 00:32:26;;;;;;;96.03;13.47;;;;;;;;;;4996402;28;20611;-68
2022/04/08 00:34:52;;;;;;;68.33;9.83;;;;;;;;;;4997655;28;20191;-69
2022/04/08 00:37:18;;;;;;;58.20;8.70;;;;;;;;;;4996158;28;20178;-68
2022/04/08 00:39:44;;;;;;;67.73;9.70;;;;;;;;;;5001397;28;20193;-69
2022/04/08 00:42:13;;;;;;;78.10;11.37;;;;;;;;;;4994501;28;20267;-69
2022/04/08 00:44:39;;;;;;;64.47;9.53;;;;;;;;;;4989800;28;20193;-68
2022/04/08 00:47:05;;;;;;;94.33;13.63;;;;;;;;;;4993889;28;20185;-69
2022/04/08 00:49:37;;;;;;;70.93;10.13;;;;;;;;;;4994444;28;20215;-68
2022/04/08 00:52:03;;;;;;;117.33;16.00;;;;;;;;;;4996197;28;20791;-69
2022/04/08 00:54:30;;;;;;;63.97;9.30;;;;;;;;;;4995377;28;20238;-68
2022/04/08 00:56:56;;;;;;;49.20;7.43;;;;;;;;;;5006797;28;20199;-69
2022/04/08 00:59:23;;;;;;;65.73;9.57;;;;;;;;;;4991245;28;20291;-69
2022/04/08 01:01:49;;;;;;;87.13;12.57;;;;;;;;;;4997824;28;20177;-69
2022/04/08 01:04:15;;;;;;;86.23;12.30;;;;;;;;;;4995022;28;20196;-69
2022/04/08 01:06:42;;;;;;;45.83;6.93;;;;;;;;;;4998885;28;20190;-69
2022/04/08 01:09:08;;;;;;;61.43;8.77;;;;;;;;;;5003094;28;20231;-69
2022/04/08 01:11:34;;;;;;;36.57;5.67;;;;;;;;;;4995655;28;20193;-68
2022/04/08 01:14:09;;;;;;;69.30;9.83;;;;;;;;;;4991633;28;20706;-69
2022/04/08 01:16:35;;;;;;;83.23;11.67;;;;;;;;;;4990779;28;20267;-69
2022/04/08 01:19:01;;;;;;;108.63;14.97;;;;;;;;;;4992347;28;20614;-69
2022/04/08 01:21:28;;;;;;;57.07;8.43;;;;;;;;;;4988971;28;20196;-69
2022/04/08 01:23:56;;;;;;;50.57;7.50;;;;;;;;;;4996295;28;20650;-69
2022/04/08 01:26:21;;;;;;;75.23;10.77;;;;;;;;;;5011177;28;20313;-69
2022/04/08 01:28:47;;;;;;;85.87;12.17;;;;;;;;;;4994621;28;20220;-69
2022/04/08 01:31:14;;;;;;;103.97;14.57;;;;;;;;;;4991631;28;20252;-69
2022/04/08 01:33:40;;;;;;;63.73;9.40;;;;;;;;;;4996254;28;20181;-69
2022/04/08 01:36:06;;;;;;;83.80;12.13;;;;;;;;;;5005508;28;20204;-68
2022/04/08 01:38:31;;;;;;;78.57;11.30;;;;;;;;;;4995474;28;20266;-69
2022/04/08 01:40:57;;;;;;;89.77;12.70;;;;;;;;;;4993455;28;20180;-69
2022/04/08 01:43:24;;;;;;;72.77;10.40;;;;;;;;;;4992929;28;20828;-68
2022/04/08 01:45:50;;;;;;;65.13;9.43;;;;;;;;;;4994241;28;20205;-68
2022/04/08 01:48:16;;;;;;;54.07;7.73;;;;;;;;;;4996457;28;20235;-68
2022/04/08 01:50:42;;;;;;;54.53;8.03;;;;;;;;;;4992770;28;20205;-69
2022/04/08 01:53:08;;;;;;;77.73;10.73;;;;;;;;;;4995318;28;20195;-69
2022/04/08 01:55:34;;;;;;;65.03;9.30;;;;;;;;;;4994049;28;20217;-68
2022/04/08 01:58:02;;;;;;;90.33;12.50;;;;;;;;;;4994145;28;20197;-69
2022/04/08 02:00:27;;;;;;;70.07;10.23;;;;;;;;;;4996516;28;20259;-69
2022/04/08 02:02:53;;;;;;;79.80;11.30;;;;;;;;;;4992834;28;20669;-69
2022/04/08 02:05:19;;;;;;;67.70;9.80;;;;;;;;;;4996500;28;20197;-69
2022/04/08 02:07:45;;;;;;;57.47;8.47;;;;;;;;;;5002342;28;20208;-68
2022/04/08 02:10:11;;;;;;;77.57;11.33;;;;;;;;;;4997533;28;20275;-69
2022/04/08 02:12:37;;;;;;;71.47;10.40;;;;;;;;;;4988574;28;20220;-69
2022/04/08 02:15:03;;;;;;;110.20;15.57;;;;;;;;;;4992432;28;20239;-69
2022/04/08 02:17:31;;;;;;;50.93;7.47;;;;;;;;;;5011167;28;20219;-69
2022/04/08 02:19:57;;;;;;;89.40;12.77;;;;;;;;;;4993139;28;20185;-68
2022/04/08 02:22:24;;;;;;;44.33;6.73;;;;;;;;;;4996090;28;20673;-69
2022/04/08 02:24:50;;;;;;;45.93;7.03;;;;;;;;;;4998785;28;20185;-69
2022/04/08 02:27:16;;;;;;;68.57;9.97;;;;;;;;;;4992281;28;20221;-69
2022/04/08 02:29:42;;;;;;;73.43;10.37;;;;;;;;;;5006455;28;20209;-69
2022/04/08 02:32:10;;;;;;;92.83;13.33;;;;;;;;;;5005287;28;20575;-69
2022/04/08 02:34:37;;;;;;;92.97;13.10;;;;;;;;;;4994506;28;20190;-68
2022/04/08 02:37:03;;;;;;;86.60;12.20;;;;;;;;;;4987801;28;20217;-68
2022/04/08 02:39:29;;;;;;;50.50;7.50;;;;;;;;;;4993822;28;20201;-69
2022/04/08 02:41:57;;;;;;;111.03;15.33;;;;;;;;;;4997963;28;20235;-69
2022/04/08 02:44:23;;;;;;;60.90;9.03;;;;;;;;;;4989473;28;20263;-69
2022/04/08 02:46:48;;;;;;;57.27;8.47;;;;;;;;;;5001546;28;20771;-69
2022/04/08 02:49:14;;;;;;;94.47;13.30;;;;;;;;;;4993085;28;20212;-70
2022/04/08 02:51:40;;;;;;;72.73;10.57;;;;;;;;;;4989732;28;20185;-69
2022/04/08 02:54:06;;;;;;;116.53;16.37;;;;;;;;;;4994058;28;20321;-69
2022/04/08 02:56:32;;;;;;;87.57;12.37;;;;;;;;;;4995754;28;20220;-70
2022/04/08 02:59:00;;;;;;;132.67;19.20;;;;;;;;;;4995868;28;20204;-70
2022/04/08 03:01:26;;;;;;;90.90;13.00;;;;;;;;;;4989291;28;20562;-69
2022/04/08 03:03:52;;;;;;;91.77;12.90;;;;;;;;;;4991714;28;20242;-69
2022/04/08 03:06:19;;;;;;;48.70;7.57;;;;;;;;;;5010579;28;20185;-69
2022/04/08 03:08:45;;;;;;;71.00;10.13;;;;;;;;;;4997985;28;20233;-69
2022/04/08 03:11:11;;;;;;;88.77;12.50;;;;;;;;;;5013494;28;20235;-69
2022/04/08 03:13:37;;;;;;;113.83;15.50;;;;;;;;;;4996394;28;20185;-69
2022/04/08 03:16:03;;;;;;;61.73;8.93;;;;;;;;;;5000068;28;20223;-69
2022/04/08 03:18:29;;;;;;;51.50;7.70;;;;;;;;;;4999706;28;20578;-69
2022/04/08 03:20:55;;;;;;;72.83;10.67;;;;;;;;;;4990695;28;20192;-70
2022/04/08 03:23:21;;;;;;;64.97;9.33;;;;;;;;;;4997878;28;20213;-69
2022/04/08 03:25:47;;;;;;;116.23;16.03;;;;;;;;;;4995889;28;20244;-69
2022/04/08 03:28:13;;;;;;;48.93;7.20;;;;;;;;;;4997387;28;20228;-68
2022/04/08 03:30:40;;;;;;;63.00;9.03;;;;;;;;;;4997453;28;20188;-69
2022/04/08 03:33:06;;;;;;;127.70;18.07;;;;;;;;;;5011357;28;20567;-69
2022/04/08 03:35:32;;;;;;;64.23;9.33;;;;;;;;;;5001176;28;20208;-70
2022/04/08 03:37:58;;;;;;;61.67;9.30;;;;;;;;;;4996228;28;20286;-69
2022/04/08 03:40:24;;;;;;;59.70;8.87;;;;;;;;;;4998762;28;20632;-68
2022/04/08 03:42:50;;;;;;;57.13;8.43;;;;;;;;;;4996593;28;20279;-71
2022/04/08 03:45:16;;;;;;;100.17;13.97;;;;;;;;;;4996592;28;20300;-69
2022/04/08 03:47:42;;;;;;;84.10;11.80;;;;;;;;;;4999270;28;20188;-69
2022/04/08 03:50:08;;;;;;;142.60;19.83;;;;;;;;;;4990624;28;22138;-70
2022/04/08 03:52:34;;;;;;;72.30;10.57;;;;;;;;;;4994299;28;20196;-69
2022/04/08 03:55:01;;;;;;;89.83;13.00;;;;;;;;;;4996171;28;20203;-70
2022/04/08 03:57:27;;;;;;;45.97;7.03;;;;;;;;;;5009006;28;20327;-69
2022/04/08 03:59:53;;;;;;;50.17;7.57;;;;;;;;;;4992903;28;20236;-69
2022/04/08 04:02:20;;;;;;;81.97;11.80;;;;;;;;;;4990769;28;20642;-69
2022/04/08 04:04:46;;;;;;;92.63;13.30;;;;;;;;;;4989246;28;20188;-70
2022/04/08 04:07:12;;;;;;;103.77;14.37;;;;;;;;;;4991264;28;20185;-69
2022/04/08 04:09:38;;;;;;;136.07;18.97;;;;;;;;;;4992333;28;20216;-70
2022/04/08 04:12:04;;;;;;;116.07;16.33;;;;;;;;;;5007451;28;20189;-70
2022/04/08 04:14:30;;;;;;;45.10;6.87;;;;;;;;;;5003108;28;20267;-69
2022/04/08 04:16:56;;;;;;;74.53;10.77;;;;;;;;;;4991737;28;20273;-69
2022/04/08 04:19:22;;;;;;;92.00;12.97;;;;;;;;;;4993952;28;20205;-69
2022/04/08 04:21:49;;;;;;;73.77;10.33;;;;;;;;;;4997154;28;20185;-69
2022/04/08 04:24:15;;;;;;;57.50;8.30;;;;;;;;;;4993608;28;20244;-70
2022/04/08 04:26:41;;;;;;;89.90;12.70;;;;;;;;;;4988023;28;20595;-69
2022/04/08 04:29:07;;;;;;;99.60;14.07;;;;;;;;;;5002429;28;20311;-69
2022/04/08 04:31:33;;;;;;;71.07;10.30;;;;;;;;;;4998152;28;20695;-69
2022/04/08 04:33:59;;;;;;;74.13;10.90;;;;;;;;;;4994528;28;20185;-69
2022/04/08 04:36:25;;;;;;;74.20;10.70;;;;;;;;;;4992049;28;20208;-70
2022/04/08 04:38:51;;;;;;;117.27;16.00;;;;;;;;;;4996326;28;20205;-69
2022/04/08 04:41:20;;;;;;;59.47;8.63;;;;;;;;;;4993844;28;20181;-69
2022/04/08 04:43:46;;;;;;;72.50;10.40;;;;;;;;;;4992695;28;20208;-69
2022/04/08 04:46:12;;;;;;;100.37;14.03;;;;;;;;;;4997853;28;20186;-69
2022/04/08 04:48:38;;;;;;;81.23;11.70;;;;;;;;;;4995629;28;20214;-69
2022/04/08 04:51:04;;;;;;;70.53;10.30;;;;;;;;;;4992648;28;20225;-69
2022/04/08 04:53:30;;;;;;;91.47;12.93;;;;;;;;;;4996186;28;20307;-69
2022/04/08 04:55:56;;;;;;;62.87;8.97;;;;;;;;;;4996064;28;20245;-70
2022/04/08 04:58:22;;;;;;;70.07;10.27;;;;;;;;;;4994142;28;20197;-69
2022/04/08 05:00:48;;;;;;;77.00;10.93;;;;;;;;;;4991751;28;20225;-69
2022/04/08 05:03:14;;;;;;;85.40;12.00;;;;;;;;;;5006778;28;20216;-69
2022/04/08 05:05:40;;;;;;;80.37;11.30;;;;;;;;;;4994070;28;20184;-69
2022/04/08 05:08:09;;;;;;;126.37;17.90;;;;;;;;;;5009586;28;20750;-69
2022/04/08 05:10:35;;;;;;;62.97;9.03;;;;;;;;;;4998300;28;20208;-69
2022/04/08 05:13:01;;;;;;;72.03;10.60;;;;;;;;;;4994321;28;20181;-69
2022/04/08 05:15:28;;;;;;;52.77;7.83;;;;;;;;;;4993266;28;20667;-68
2022/04/08 05:17:54;;;;;;;67.03;9.53;;;;;;;;;;4998865;28;20650;-68
2022/04/08 05:20:20;;;;;;;59.97;9.00;;;;;;;;;;4993571;28;20173;-67
2022/04/08 05:22:46;;;;;;;82.17;11.53;;;;;;;;;;5000208;28;20185;-67
2022/04/08 05:25:12;;;;;;;81.80;11.57;;;;;;;;;;4990740;28;20188;-67
2022/04/08 05:27:39;;;;;;;94.77;13.10;;;;;;;;;;4991781;28;21109;-67
2022/04/08 05:30:06;;;;;;;104.50;14.53;;;;;;;;;;4982147;28;20186;-67
2022/04/08 05:32:32;;;;;;;75.13;10.60;;;;;;;;;;4989526;28;20263;-67
2022/04/08 05:34:58;;;;;;;93.20;13.03;;;;;;;;;;4989920;28;20177;-67
2022/04/08 05:37:24;;;;;;;82.77;11.77;;;;;;;;;;4994260;28;20725;-67
2022/04/08 05:39:49;;;;;;;94.60;12.97;;;;;;;;;;4991145;28;20311;-67
2022/04/08 05:42:15;;;;;;;71.43;10.10;;;;;;;;;;4999559;28;20188;-67
2022/04/08 05:44:41;;;;;;;87.03;12.17;;;;;;;;;;4991433;28;20790;-67
2022/04/08 05:47:07;;;;;;;96.87;13.63;;;;;;;;;;4994220;28;20197;-67
2022/04/08 05:49:33;;;;;;;57.13;8.23;;;;;;;;;;5011225;28;20271;-67
2022/04/08 05:51:59;;;;;;;113.77;16.07;;;;;;;;;;4993090;28;20281;-67
2022/04/08 05:54:25;;;;;;;105.93;14.77;;;;;;;;;;4991503;28;20197;-67
2022/04/08 05:56:51;;;;;;;84.30;11.73;;;;;;;;;;4994111;28;20200;-67
2022/04/08 05:59:17;;;;;;;81.20;11.60;;;;;;;;;;4991685;28;20243;-67
2022/04/08 06:01:43;;;;;;;83.00;11.63;;;;;;;;;;4995066;28;20197;-67
2022/04/08 06:04:09;;;;;;;105.97;14.63;;;;;;;;;;4998030;28;20173;-67
2022/04/08 06:06:38;;;;;;;103.57;14.47;;;;;;;;;;4993100;28;20205;-67
2022/04/08 06:09:04;;;;;;;110.03;15.53;;;;;;;;;;4992314;28;20213;-67
2022/04/08 06:11:30;;;;;;;103.03;14.13;;;;;;;;;;4989033;28;20189;-67
2022/04/08 06:13:56;;;;;;;82.80;11.67;;;;;;;;;;5007285;28;20188;-66
2022/04/08 06:16:25;;;;;;;73.80;10.67;;;;;;;;;;4991647;28;20220;-68
2022/04/08 06:18:51;;;;;;;87.77;12.53;;;;;;;;;;4993496;28;20205;-70
2022/04/08 06:21:17;;;;;;;89.50;12.73;;;;;;;;;;4989705;28;20193;-69
2022/04/08 06:23:43;;;;;;;76.67;10.83;;;;;;;;;;4995045;28;20190;-71
2022/04/08 06:26:09;;;;;;;105.33;14.53;;;;;;;;;;4992091;28;20587;-68
2022/04/08 06:28:35;;;;;;;72.57;10.50;;;;;;;;;;4993123;28;20224;-68
2022/04/08 06:31:01;;;;;;;79.80;11.47;;;;;;;;;;4988685;28;20307;-64
2022/04/08 06:33:27;;;;;;;104.47;14.57;;;;;;;;;;4992823;28;20200;-66
2022/04/08 06:35:53;;;;;;;93.20;13.07;;;;;;;;;;4994328;28;20208;-67
2022/04/08 06:38:19;;;;;;;64.20;9.30;;;;;;;;;;4995833;28;20208;-66
2022/04/08 06:40:45;;;;;;;81.07;11.53;;;;;;;;;;4992742;28;20208;-67
2022/04/08 06:43:12;;;;;;;95.23;13.27;;;;;;;;;;4996613;28;20192;-67
2022/04/08 06:45:37;;;;;;;100.83;13.73;;;;;;;;;;5004254;28;20260;-69
2022/04/08 06:48:04;;;;;;;129.17;17.67;;;;;;;;;;4987036;28;20291;-69
2022/04/08 06:50:30;;;;;;;135.13;18.50;;;;;;;;;;4987070;28;20256;-70
2022/04/08 06:52:59;;;;;;;124.70;16.97;;;;;;;;;;4969313;28;20287;-71
2022/04/08 06:55:25;;;;;;;122.13;16.83;;;;;;;;;;4989051;28;20204;-74
2022/04/08 06:57:51;;;;;;;80.83;11.43;;;;;;;;;;4984637;28;20224;-62
2022/04/08 07:00:17;;;;;;;106.07;14.90;;;;;;;;;;4999068;28;20670;-64
2022/04/08 07:02:43;;;;;;;107.57;15.50;;;;;;;;;;4992542;28;20813;-62
2022/04/08 07:05:10;;;;;;;127.50;17.57;;;;;;;;;;4986573;28;20326;-62
2022/04/08 07:07:37;;;;;;;68.20;9.90;;;;;;;;;;4993356;28;20243;-62
2022/04/08 07:10:04;;;;;;;61.90;9.00;;;;;;;;;;4997155;28;20312;-62
2022/04/08 07:12:30;;;;;;;94.80;13.73;;;;;;;;;;4984405;28;20187;-68
2022/04/08 07:14:56;;;;;;;101.83;14.70;;;;;;;;;;4988444;28;20189;-67
2022/04/08 07:17:35;;;;;;;48.67;7.50;;;;;;;;;;5005933;28;20299;-69
2022/04/08 07:20:01;;;;;;;90.30;12.80;;;;;;;;;;4986862;28;20590;-67
2022/04/08 07:22:27;;;;;;;110.70;15.57;;;;;;;;;;5001401;28;20192;-67
2022/04/08 07:24:53;;;;;;;130.63;18.10;;;;;;;;;;4981689;28;20184;-67
2022/04/08 07:27:20;;;;;;;103.53;14.43;;;;;;;;;;4989261;28;20197;-69
2022/04/08 07:29:47;;;;;;;167.07;23.67;;;;;;;;;;4986905;28;20204;-67
2022/04/08 07:32:13;;;;;;;92.57;13.10;;;;;;;;;;4993624;28;20381;-69
2022/04/08 07:34:40;;;;;;;126.07;17.77;;;;;;;;;;4986015;28;20304;-69
2022/04/08 07:37:06;;;;;;;107.67;15.47;;;;;;;;;;4998133;28;20206;-68
2022/04/08 07:39:33;;;;;;;100.53;14.30;;;;;;;;;;4988327;28;20205;-69
2022/04/08 07:41:59;;;;;;;145.83;20.60;;;;;;;;;;4994016;28;20197;-73
2022/04/08 07:44:25;;;;;;;77.20;11.27;;;;;;;;;;4993907;28;20628;-71
2022/04/08 07:46:51;;;;;;;88.57;12.67;;;;;;;;;;4993403;28;20288;-71
2022/04/08 07:49:17;;;;;;;136.77;19.30;;;;;;;;;;4993835;28;20278;-68
2022/04/08 07:51:43;;;;;;;169.97;23.77;;;;;;;;;;4985023;28;20538;-68
2022/04/08 07:54:09;;;;;;;146.37;20.53;;;;;;;;;;4979875;28;20192;-67
2022/04/08 07:56:35;;;;;;;72.80;10.53;;;;;;;;;;4998187;28;20220;-69
2022/04/08 07:59:02;;;;;;;161.03;21.70;;;;;;;;;;4982956;28;20207;-67
2022/04/08 08:01:28;;;;;;;82.53;11.47;;;;;;;;;;4985706;28;20232;-66
2022/04/08 08:03:54;;;;;;;96.50;15.80;;;;;;;;;;4991056;28;20834;-71
2022/04/08 08:06:20;;;;;;;118.30;22.30;;;;;;;;;;4987419;28;20647;-68
2022/04/08 08:08:46;;;;;;;51.03;10.03;;;;;;;;;;4991717;28;20205;-69
2022/04/08 08:11:15;;;;;;;134.20;26.03;;;;;;;;;;5008505;28;20660;-68
2022/04/08 08:13:41;;;;;;;99.93;21.33;;;;;;;;;;4991642;28;20181;-69
2022/04/08 08:16:07;;;;;;;231.87;50.10;;;;;;;;;;4996708;28;20440;-69
2022/04/08 08:18:34;;;;;;;121.60;24.47;;;;;;;;;;4999481;28;20209;-69
2022/04/08 08:21:00;;;;;;;104.13;20.87;;;;;;;;;;4988881;28;20196;-68
2022/04/08 08:23:27;;;;;;;130.73;26.10;;;;;;;;;;4998308;28;20185;-70
2022/04/08 08:25:53;;;;;;;110.13;21.33;;;;;;;;;;4994364;28;20213;-69
2022/04/08 08:28:19;;;;;;;141.20;35.90;;;;;;;;;;5000401;28;20221;-71
2022/04/08 08:30:45;;;;;;;140.13;32.73;;;;;;;;;;4995435;28;20282;-72
2022/04/08 08:33:11;;;;;;;121.27;30.40;;;;;;;;;;4992297;28;20877;-71
2022/04/08 08:35:37;;;;;;;137.80;32.37;;;;;;;;;;4989680;28;20202;-71
2022/04/08 08:38:04;;;;;;;129.77;31.70;;;;;;;;;;4990857;28;20204;-69
2022/04/08 08:40:32;;;;;;;164.17;36.07;;;;;;;;;;4991150;28;20192;-71
2022/04/08 08:42:58;;;;;;;125.80;29.13;;;;;;;;;;4994498;28;20231;-71
2022/04/08 08:45:28;;;;;;;80.77;18.67;;;;;;;;;;4992008;28;20177;-70
2022/04/08 08:47:59;;;;;;;174.13;40.83;;;;;;;;;;4989293;28;20220;-70
2022/04/08 08:50:25;;;;;;;79.07;18.23;;;;;;;;;;4990308;28;20707;-70
2022/04/08 08:52:51;;;;;;;138.67;29.73;;;;;;;;;;5004790;28;20177;-71
2022/04/08 08:55:17;;;;;;;131.43;29.23;;;;;;;;;;4990693;28;20189;-69
2022/04/08 08:57:45;;;;;;;147.53;31.30;;;;;;;;;;4984758;28;20724;-68
2022/04/08 09:00:13;;;;;;;148.17;31.97;;;;;;;;;;4986725;28;20177;-71
2022/04/08 09:02:39;;;;;;;133.37;28.93;;;;;;;;;;4992456;28;20841;-72
2022/04/08 09:05:16;;;;;;;171.77;38.03;;;;;;;;;;5003793;28;20188;-71
2022/04/08 09:07:42;;;;;;;157.57;33.80;;;;;;;;;;4989827;28;20800;-68
2022/04/08 09:10:08;;;;;;;121.63;27.50;;;;;;;;;;4996347;28;20238;-71
2022/04/08 09:12:34;;;;;;;145.90;31.77;;;;;;;;;;4992445;28;20201;-70
2022/04/08 09:15:04;;;;;;;166.33;37.77;;;;;;;;;;4985819;28;20189;-70
2022/04/08 09:17:30;;;;;;;154.80;34.07;;;;;;;;;;4989309;28;20208;-69
2022/04/08 09:19:57;;;;;;;197.47;44.50;;;;;;;;;;4988521;28;20549;-71
2022/04/08 09:22:28;;;;;;;277.30;59.97;;;;;;;;;;4994511;28;20816;-70
2022/04/08 09:24:54;;;;;;;98.80;22.10;;;;;;;;;;4991240;28;20206;-69
2022/04/08 09:27:21;;;;;;;148.07;33.40;;;;;;;;;;4997663;28;20539;-70
2022/04/08 09:29:47;;;;;;;99.80;22.43;;;;;;;;;;4995274;28;20209;-70
2022/04/08 09:32:13;;;;;;;69.63;16.00;;;;;;;;;;4997470;28;21142;-69
2022/04/08 09:34:40;;;;;;;95.23;21.10;;;;;;;;;;4991416;28;20193;-69
2022/04/08 09:37:12;;;;;;;110.50;26.10;;;;;;;;;;4998309;28;20324;-69
2022/04/08 09:39:53;;;;;;;113.10;25.20;;;;;;;;;;5001238;28;20989;-70
2022/04/08 09:42:19;;;;;;;81.87;18.93;;;;;;;;;;4998219;28;20196;-69
2022/04/08 09:44:45;;;;;;;104.07;23.70;;;;;;;;;;5004252;28;20242;-70
2022/04/08 09:47:10;;;;;;;144.57;33.07;;;;;;;;;;4997337;28;20655;-71
2022/04/08 09:49:36;;;;;;;109.37;25.00;;;;;;;;;;5001940;28;20237;-69
2022/04/08 09:52:05;;;;;;;124.53;30.80;;;;;;;;;;4999333;28;20223;-69
2022/04/08 09:54:33;;;;;;;100.17;23.37;;;;;;;;;;4996615;28;20188;-69
2022/04/08 09:57:02;;;;;;;180.37;42.47;;;;;;;;;;4992337;28;20209;-70
2022/04/08 09:59:31;;;;;;;156.87;34.40;;;;;;;;;;4985868;28;20220;-70
2022/04/08 10:01:58;;;;;;;164.83;41.07;;;;;;;;;;4996645;28;20248;-71
2022/04/08 10:04:25;;;;;;;123.97;28.17;;;;;;;;;;5005878;28;20267;-69
2022/04/08 10:06:51;;;;;;;84.40;18.43;;;;;;;;;;4998325;28;20186;-70
2022/04/08 10:09:19;;;;;;;206.93;48.20;;;;;;;;;;4986387;28;20314;-69
2022/04/08 10:12:04;;;;;;;200.03;45.27;;;;;;;;;;4986441;28;20223;-69
2022/04/08 10:14:36;;;;;;;107.37;23.93;;;;;;;;;;4991462;28;20189;-69
2022/04/08 10:17:02;;;;;;;200.73;46.07;;;;;;;;;;4982491;28;20200;-70
2022/04/08 10:19:29;;;;;;;303.20;68.73;;;;;;;;;;4984943;28;20216;-70
2022/04/08 10:21:56;;;;;;;119.73;27.97;;;;;;;;;;4996314;28;20234;-69
2022/04/08 10:24:25;;;;;;;83.00;18.83;;;;;;;;;;5000867;28;20201;-69
2022/04/08 10:27:18;;;;;;;86.57;20.03;;;;;;;;;;5013069;28;20279;-70
2022/04/08 10:29:54;;;;;;;114.23;25.40;;;;;;;;;;5000281;28;20221;-70
2022/04/08 10:32:21;;;;;;;88.47;19.63;;;;;;;;;;4996766;28;20574;-69
2022/04/08 10:34:47;;;;;;;57.83;14.07;;;;;;;;;;5002673;28;20189;-70
2022/04/08 10:37:21;;;;;;;85.77;20.00;;;;;;;;;;5003757;28;21072;-69
2022/04/08 10:40:04;;;;;;;80.87;18.63;;;;;;;;;;5003892;28;20208;-69
2022/04/08 10:42:34;;;;;;;96.53;22.60;;;;;;;;;;4996787;28;20181;-70
2022/04/08 10:45:10;;;;;;;142.37;33.60;;;;;;;;;;5005801;28;20644;-71
2022/04/08 10:47:46;;;;;;;98.43;22.30;;;;;;;;;;5003103;28;20682;-70
2022/04/08 10:50:12;;;;;;;111.87;26.97;;;;;;;;;;4996822;28;20189;-70
2022/04/08 10:52:41;;;;;;;68.57;17.00;;;;;;;;;;5000218;28;20528;-69
2022/04/08 10:55:08;;;;;;;194.90;47.37;;;;;;;;;;4987484;28;20896;-72
2022/04/08 10:57:35;;;;;;;83.60;21.50;;;;;;;;;;5010173;28;20303;-72
2022/04/08 11:00:15;;;;;;;104.97;26.03;;;;;;;;;;5006146;28;20209;-70
2022/04/08 11:02:43;;;;;;;111.53;26.07;;;;;;;;;;5000434;28;20176;-71
2022/04/08 11:05:09;;;;;;;175.10;41.90;;;;;;;;;;4991741;28;20182;-71
2022/04/08 11:07:39;;;;;;;84.60;19.57;;;;;;;;;;4998038;28;20728;-71
2022/04/08 11:10:05;;;;;;;104.33;23.53;;;;;;;;;;5007187;28;20188;-71
2022/04/08 11:12:31;;;;;;;71.07;15.97;;;;;;;;;;5001956;28;20209;-71
2022/04/08 11:15:02;;;;;;;205.63;48.43;;;;;;;;;;4990377;28;21204;-71
2022/04/08 11:17:35;;;;;;;139.67;30.10;;;;;;;;;;4989733;28;20220;-71
2022/04/08 11:20:04;;;;;;;141.23;30.23;;;;;;;;;;4988348;28;20185;-70
2022/04/08 11:22:38;;;;;;;148.57;32.57;;;;;;;;;;4995230;28;20200;-70
2022/04/08 11:25:05;;;;;;;215.23;48.63;;;;;;;;;;4990849;28;20268;-70
2022/04/08 11:27:32;;;;;;;175.10;37.73;;;;;;;;;;4979454;28;20271;-69
2022/04/08 11:29:58;;;;;;;165.53;36.40;;;;;;;;;;4983417;28;21574;-70
2022/04/08 11:32:30;;;;;;;114.10;24.33;;;;;;;;;;4990143;28;20296;-70
2022/04/08 11:34:56;;;;;;;112.00;24.90;;;;;;;;;;5009144;28;20184;-68
2022/04/08 11:37:28;;;;;;;62.30;13.97;;;;;;;;;;5001933;28;20207;-69
2022/04/08 11:39:58;;;;;;;79.00;17.27;;;;;;;;;;5001024;28;20180;-70
2022/04/08 11:42:24;;;;;;;130.20;28.87;;;;;;;;;;5003547;28;20565;-70
2022/04/08 11:44:50;;;;;;;132.73;28.10;;;;;;;;;;4996357;28;20295;-69
2022/04/08 11:47:17;;;;;;;111.47;24.30;;;;;;;;;;5009165;28;20215;-69
2022/04/08 11:49:43;;;;;;;119.77;25.60;;;;;;;;;;4995787;28;20208;-70
2022/04/08 11:52:09;;;;;;;110.97;26.00;;;;;;;;;;5007123;28;20269;-70
2022/04/08 11:54:36;;;;;;;100.80;21.30;;;;;;;;;;5012141;28;20689;-70
2022/04/08 11:57:04;;;;;;;153.93;36.23;;;;;;;;;;4988031;28;20205;-69
2022/04/08 11:59:30;;;;;;;96.40;22.00;;;;;;;;;;5006006;28;20201;-70
2022/04/08 12:02:00;;;;;;;178.07;40.30;;;;;;;;;;4997167;28;20731;-70
2022/04/08 12:04:26;;;;;;;278.13;62.50;;;;;;;;;;4992102;28;20188;-70
2022/04/08 12:06:52;;;;;;;178.23;39.10;;;;;;;;;;4988550;28;20366;-69
2022/04/08 12:09:22;;;;;;;147.97;35.20;;;;;;;;;;4988382;28;20231;-70
2022/04/08 12:11:48;;;;;;;122.63;26.40;;;;;;;;;;4996351;28;20181;-70
2022/04/08 12:14:14;;;;;;;144.43;30.93;;;;;;;;;;4989206;28;20189;-69
2022/04/08 12:16:41;;;;;;;145.43;31.57;;;;;;;;;;4988453;28;20216;-69
2022/04/08 12:19:08;;;;;;;262.60;60.60;;;;;;;;;;4988089;28;20213;-70
2022/04/08 12:21:35;;;;;;;82.20;18.07;;;;;;;;;;4985465;28;20200;-70
2022/04/08 12:24:01;;;;;;;120.53;26.50;;;;;;;;;;5003345;28;20208;-70
2022/04/08 12:26:28;;;;;;;184.47;40.10;;;;;;;;;;4996995;28;20189;-70
2022/04/08 12:29:10;;;;;;;111.80;24.97;;;;;;;;;;5005472;28;20657;-70
2022/04/08 12:31:45;;;;;;;104.50;22.20;;;;;;;;;;4998059;28;20192;-70
2022/04/08 12:34:12;;;;;;;200.93;48.43;;;;;;;;;;4988507;28;20199;-70
2022/04/08 12:36:38;;;;;;;126.63;27.00;;;;;;;;;;4992453;28;20200;-70
2022/04/08 12:39:04;;;;;;;150.17;34.03;;;;;;;;;;5009536;28;20829;-71
2022/04/08 12:41:30;;;;;;;103.70;24.97;;;;;;;;;;4995547;28;20185;-70
2022/04/08 12:43:57;;;;;;;191.73;45.50;;;;;;;;;;4987031;28;20188;-70
2022/04/08 12:46:23;;;;;;;112.33;25.07;;;;;;;;;;4993067;28;20187;-70
2022/04/08 12:48:50;;;;;;;69.30;15.30;;;;;;;;;;5001802;28;20270;-70
2022/04/08 12:51:16;;;;;;;162.43;35.67;;;;;;;;;;4987125;28;20200;-71
2022/04/08 12:53:42;;;;;;;134.27;29.23;;;;;;;;;;4994283;28;20286;-70
2022/04/08 12:56:08;;;;;;;112.40;24.67;;;;;;;;;;4995602;28;20864;-70
2022/04/08 12:58:34;;;;;;;138.70;29.77;;;;;;;;;;5008402;28;20220;-70
2022/04/08 13:01:00;;;;;;;122.07;27.97;;;;;;;;;;5003013;28;20242;-70
2022/04/08 13:03:26;;;;;;;128.43;29.23;;;;;;;;;;4996386;28;20192;-70
2022/04/08 13:05:52;;;;;;;93.73;21.27;;;;;;;;;;4998554;28;20189;-70
2022/04/08 13:08:18;;;;;;;108.90;25.73;;;;;;;;;;5008724;28;20631;-70
2022/04/08 13:10:45;;;;;;;122.27;32.20;;;;;;;;;;5006593;28;20216;-70
2022/04/08 13:13:11;;;;;;;257.23;121.70;;;;;;;;;;5000715;28;20196;-70
2022/04/08 13:15:37;;;;;;;320.70;153.10;;;;;;;;;;4992763;28;21220;-70
2022/04/08 13:18:03;;;;;;;457.37;210.60;;;;;;;;;;4995950;28;20256;-70
2022/04/08 13:20:29;;;;;;;113.03;24.27;;;;;;;;;;4986223;28;20184;-71
2022/04/08 13:22:55;;;;;;;186.03;40.30;;;;;;;;;;4981415;28;20218;-73
2022/04/08 13:25:23;;;;;;;125.27;26.20;;;;;;;;;;4989838;28;20192;-71
2022/04/08 13:27:49;;;;;;;127.13;26.57;;;;;;;;;;4990439;28;20464;-71
2022/04/08 13:30:16;;;;;;;185.03;37.00;;;;;;;;;;4988399;28;20196;-71
2022/04/08 13:32:42;;;;;;;193.30;38.73;;;;;;;;;;4995426;28;20179;-71
2022/04/08 13:35:08;;;;;;;137.27;26.23;;;;;;;;;;4983974;28;20188;-68
2022/04/08 13:37:36;;;;;;;128.27;23.87;;;;;;;;;;4985173;28;22051;-71
2022/04/08 13:40:02;;;;;;;138.93;28.70;;;;;;;;;;4991914;28;20181;-72
2022/04/08 13:42:29;;;;;;;94.17;18.47;;;;;;;;;;4984906;28;20200;-72
2022/04/08 13:44:55;;;;;;;125.70;24.17;;;;;;;;;;4992212;28;20193;-71
2022/04/08 13:47:21;;;;;;;88.30;17.93;;;;;;;;;;5020002;28;20229;-70
2022/04/08 13:49:47;;;;;;;112.50;21.87;;;;;;;;;;5002271;28;20674;-72
2022/04/08 13:52:13;;;;;;;79.80;15.70;;;;;;;;;;5001318;28;20200;-71
2022/04/08 13:54:39;;;;;;;84.80;16.83;;;;;;;;;;4999494;28;20339;-69
2022/04/08 13:57:05;;;;;;;156.17;30.17;;;;;;;;;;4984389;28;20212;-71
2022/04/08 13:59:31;;;;;;;186.50;35.97;;;;;;;;;;4981548;28;20279;-71
2022/04/08 14:01:57;;;;;;;136.47;26.10;;;;;;;;;;5001167;28;20269;-71
2022/04/08 14:04:23;;;;;;;169.43;31.50;;;;;;;;;;5000721;28;20215;-71
2022/04/08 14:06:50;;;;;;;110.40;20.47;;;;;;;;;;4982446;28;20220;-70
2022/04/08 14:09:16;;;;;;;97.40;18.30;;;;;;;;;;4981969;28;20209;-70
2022/04/08 14:11:42;;;;;;;132.20;25.33;;;;;;;;;;4989694;28;20197;-72